sensor_id;sensor_type;location;lat;lon;timestamp;temperature;humidity
25732;DHT22;13585;50.864;4.406;2023-07-31T00:00:12;27.00;59.60
25732;DHT22;13585;50.864;4.406;2023-07-31T00:02:38;27.00;59.60
25732;DHT22;13585;50.864;4.406;2023-07-31T00:05:04;27.00;59.70
25732;DHT22;13585;50.864;4.406;2023-07-31T00:07:29;26.90;59.60
25732;DHT22;13585;50.864;4.406;2023-07-31T00:09:55;26.90;59.60
25732;DHT22;13585;50.864;4.406;2023-07-31T00:12:22;26.90;60.00
25732;DHT22;13585;50.864;4.406;2023-07-31T00:14:48;27.00;59.80
25732;DHT22;13585;50.864;4.406;2023-07-31T00:17:14;26.90;59.60
25732;DHT22;13585;50.864;4.406;2023-07-31T00:19:39;26.90;59.60
25732;DHT22;13585;50.864;4.406;2023-07-31T00:22:05;26.90;59.50
25732;DHT22;13585;50.864;4.406;2023-07-31T00:24:31;26.90;59.60
25732;DHT22;13585;50.864;4.406;2023-07-31T00:26:56;26.90;59.60
25732;DHT22;13585;50.864;4.406;2023-07-31T00:29:22;26.90;59.60
25732;DHT22;13585;50.864;4.406;2023-07-31T00:31:47;26.90;59.60
25732;DHT22;13585;50.864;4.406;2023-07-31T00:34:13;26.90;59.60
25732;DHT22;13585;50.864;4.406;2023-07-31T00:36:39;26.90;59.60
25732;DHT22;13585;50.864;4.406;2023-07-31T00:39:04;26.90;59.60
25732;DHT22;13585;50.864;4.406;2023-07-31T00:41:30;26.90;59.40
25732;DHT22;13585;50.864;4.406;2023-07-31T00:43:56;26.90;59.50
25732;DHT22;13585;50.864;4.406;2023-07-31T00:46:21;26.90;59.50
25732;DHT22;13585;50.864;4.406;2023-07-31T00:48:47;26.90;59.40
25732;DHT22;13585;50.864;4.406;2023-07-31T00:51:14;26.90;59.50
25732;DHT22;13585;50.864;4.406;2023-07-31T00:53:40;26.90;59.50
25732;DHT22;13585;50.864;4.406;2023-07-31T00:56:06;26.90;59.50
25732;DHT22;13585;50.864;4.406;2023-07-31T00:58:32;27.00;59.60
25732;DHT22;13585;50.864;4.406;2023-07-31T01:00:58;27.00;59.70
25732;DHT22;13585;50.864;4.406;2023-07-31T01:03:24;26.90;59.60
25732;DHT22;13585;50.864;4.406;2023-07-31T01:05:58;26.90;59.60
25732;DHT22;13585;50.864;4.406;2023-07-31T01:08:56;26.90;59.60
25732;DHT22;13585;50.864;4.406;2023-07-31T01:11:27;26.90;59.50
25732;DHT22;13585;50.864;4.406;2023-07-31T01:13:55;26.90;59.50
25732;DHT22;13585;50.864;4.406;2023-07-31T01:16:20;26.90;59.50
25732;DHT22;13585;50.864;4.406;2023-07-31T01:18:46;27.00;59.60
25732;DHT22;13585;50.864;4.406;2023-07-31T01:26:53;26.90;59.60
25732;DHT22;13585;50.864;4.406;2023-07-31T01:32:02;26.90;59.60
25732;DHT22;13585;50.864;4.406;2023-07-31T01:34:31;26.90;59.40
25732;DHT22;13585;50.864;4.406;2023-07-31T01:36:57;26.90;59.50
25732;DHT22;13585;50.864;4.406;2023-07-31T01:39:26;26.90;59.50
25732;DHT22;13585;50.864;4.406;2023-07-31T01:41:51;26.90;59.50
25732;DHT22;13585;50.864;4.406;2023-07-31T01:44:17;26.90;59.50
25732;DHT22;13585;50.864;4.406;2023-07-31T01:46:43;26.90;59.40
25732;DHT22;13585;50.864;4.406;2023-07-31T01:49:08;26.90;59.40
25732;DHT22;13585;50.864;4.406;2023-07-31T01:51:34;26.90;59.50
25732;DHT22;13585;50.864;4.406;2023-07-31T01:54:02;26.90;60.10
25732;DHT22;13585;50.864;4.406;2023-07-31T01:56:28;26.90;59.50
25732;DHT22;13585;50.864;4.406;2023-07-31T01:58:54;26.90;59.40
25732;DHT22;13585;50.864;4.406;2023-07-31T02:01:20;26.90;59.40
25732;DHT22;13585;50.864;4.406;2023-07-31T02:03:45;26.90;59.40
25732;DHT22;13585;50.864;4.406;2023-07-31T02:06:11;26.90;59.40
25732;DHT22;13585;50.864;4.406;2023-07-31T02:08:37;26.90;59.40
25732;DHT22;13585;50.864;4.406;2023-07-31T02:11:03;26.90;59.30
25732;DHT22;13585;50.864;4.406;2023-07-31T02:13:29;26.90;59.40
25732;DHT22;13585;50.864;4.406;2023-07-31T02:15:55;26.90;59.40
25732;DHT22;13585;50.864;4.406;2023-07-31T02:18:20;26.90;59.40
25732;DHT22;13585;50.864;4.406;2023-07-31T02:20:51;26.90;59.40
25732;DHT22;13585;50.864;4.406;2023-07-31T02:23:20;26.90;59.40
25732;DHT22;13585;50.864;4.406;2023-07-31T02:25:45;26.90;59.40
25732;DHT22;13585;50.864;4.406;2023-07-31T02:28:11;26.90;59.40
25732;DHT22;13585;50.864;4.406;2023-07-31T02:30:37;26.90;59.40
25732;DHT22;13585;50.864;4.406;2023-07-31T02:33:04;26.90;59.40
25732;DHT22;13585;50.864;4.406;2023-07-31T02:35:30;26.80;59.30
25732;DHT22;13585;50.864;4.406;2023-07-31T02:37:56;26.90;59.40
25732;DHT22;13585;50.864;4.406;2023-07-31T02:40:22;26.90;59.40
25732;DHT22;13585;50.864;4.406;2023-07-31T02:42:47;26.90;59.40
25732;DHT22;13585;50.864;4.406;2023-07-31T02:45:13;26.90;59.40
25732;DHT22;13585;50.864;4.406;2023-07-31T02:47:39;26.90;59.40
25732;DHT22;13585;50.864;4.406;2023-07-31T02:50:05;26.90;59.40
25732;DHT22;13585;50.864;4.406;2023-07-31T02:52:30;26.90;59.40
25732;DHT22;13585;50.864;4.406;2023-07-31T02:54:57;26.90;59.40
25732;DHT22;13585;50.864;4.406;2023-07-31T02:57:23;26.90;59.40
25732;DHT22;13585;50.864;4.406;2023-07-31T02:59:49;26.90;59.30
25732;DHT22;13585;50.864;4.406;2023-07-31T03:02:14;26.90;59.40
25732;DHT22;13585;50.864;4.406;2023-07-31T03:04:40;26.90;59.30
25732;DHT22;13585;50.864;4.406;2023-07-31T03:07:06;26.90;59.30
25732;DHT22;13585;50.864;4.406;2023-07-31T03:09:31;26.90;59.30
25732;DHT22;13585;50.864;4.406;2023-07-31T03:11:57;26.90;59.30
25732;DHT22;13585;50.864;4.406;2023-07-31T03:14:22;26.90;59.30
25732;DHT22;13585;50.864;4.406;2023-07-31T03:16:49;26.90;59.30
25732;DHT22;13585;50.864;4.406;2023-07-31T03:19:14;26.90;59.30
25732;DHT22;13585;50.864;4.406;2023-07-31T03:21:40;26.90;59.30
25732;DHT22;13585;50.864;4.406;2023-07-31T03:24:06;26.90;59.30
25732;DHT22;13585;50.864;4.406;2023-07-31T03:26:32;26.90;59.30
25732;DHT22;13585;50.864;4.406;2023-07-31T03:28:57;26.90;59.30
25732;DHT22;13585;50.864;4.406;2023-07-31T03:31:23;26.90;59.30
25732;DHT22;13585;50.864;4.406;2023-07-31T03:33:49;26.90;59.20
25732;DHT22;13585;50.864;4.406;2023-07-31T03:36:14;26.90;59.30
25732;DHT22;13585;50.864;4.406;2023-07-31T03:38:40;26.90;59.30
25732;DHT22;13585;50.864;4.406;2023-07-31T03:41:06;26.90;59.20
25732;DHT22;13585;50.864;4.406;2023-07-31T03:43:32;26.90;59.20
25732;DHT22;13585;50.864;4.406;2023-07-31T03:46:02;26.90;59.90
25732;DHT22;13585;50.864;4.406;2023-07-31T03:48:28;26.80;59.20
25732;DHT22;13585;50.864;4.406;2023-07-31T03:50:54;26.90;59.30
25732;DHT22;13585;50.864;4.406;2023-07-31T03:53:20;26.80;59.20
25732;DHT22;13585;50.864;4.406;2023-07-31T03:55:45;26.80;59.20
25732;DHT22;13585;50.864;4.406;2023-07-31T03:58:11;26.80;59.20
25732;DHT22;13585;50.864;4.406;2023-07-31T04:00:37;26.80;59.20
25732;DHT22;13585;50.864;4.406;2023-07-31T04:03:02;26.80;59.20
25732;DHT22;13585;50.864;4.406;2023-07-31T04:05:31;26.80;59.20
25732;DHT22;13585;50.864;4.406;2023-07-31T04:07:56;26.80;59.20
25732;DHT22;13585;50.864;4.406;2023-07-31T04:10:22;26.80;59.20
25732;DHT22;13585;50.864;4.406;2023-07-31T04:12:48;26.80;59.20
25732;DHT22;13585;50.864;4.406;2023-07-31T04:15:14;26.80;59.20
25732;DHT22;13585;50.864;4.406;2023-07-31T04:17:39;26.80;59.20
25732;DHT22;13585;50.864;4.406;2023-07-31T04:20:06;26.80;59.20
25732;DHT22;13585;50.864;4.406;2023-07-31T04:22:31;26.80;59.20
25732;DHT22;13585;50.864;4.406;2023-07-31T04:24:57;26.80;59.20
25732;DHT22;13585;50.864;4.406;2023-07-31T04:27:22;26.80;59.10
25732;DHT22;13585;50.864;4.406;2023-07-31T04:29:48;26.80;59.20
25732;DHT22;13585;50.864;4.406;2023-07-31T04:32:14;26.80;59.20
25732;DHT22;13585;50.864;4.406;2023-07-31T04:34:42;26.80;59.20
25732;DHT22;13585;50.864;4.406;2023-07-31T04:37:07;26.80;59.20
25732;DHT22;13585;50.864;4.406;2023-07-31T04:39:33;26.80;59.10
25732;DHT22;13585;50.864;4.406;2023-07-31T04:41:59;26.80;59.10
25732;DHT22;13585;50.864;4.406;2023-07-31T04:44:24;26.80;59.10
25732;DHT22;13585;50.864;4.406;2023-07-31T04:46:50;26.80;59.10
25732;DHT22;13585;50.864;4.406;2023-07-31T04:49:15;26.80;59.10
25732;DHT22;13585;50.864;4.406;2023-07-31T04:51:41;26.80;59.10
25732;DHT22;13585;50.864;4.406;2023-07-31T04:54:06;26.80;59.00
25732;DHT22;13585;50.864;4.406;2023-07-31T04:56:32;26.80;59.10
25732;DHT22;13585;50.864;4.406;2023-07-31T04:58:58;26.80;59.10
25732;DHT22;13585;50.864;4.406;2023-07-31T05:01:23;26.80;59.10
25732;DHT22;13585;50.864;4.406;2023-07-31T05:03:49;26.80;59.10
25732;DHT22;13585;50.864;4.406;2023-07-31T05:06:14;26.80;59.00
25732;DHT22;13585;50.864;4.406;2023-07-31T05:08:40;26.80;59.00
25732;DHT22;13585;50.864;4.406;2023-07-31T05:11:06;26.80;59.00
25732;DHT22;13585;50.864;4.406;2023-07-31T05:13:32;26.80;59.00
25732;DHT22;13585;50.864;4.406;2023-07-31T05:15:57;26.80;59.00
25732;DHT22;13585;50.864;4.406;2023-07-31T05:18:23;26.80;59.00
25732;DHT22;13585;50.864;4.406;2023-07-31T05:20:48;26.80;59.00
25732;DHT22;13585;50.864;4.406;2023-07-31T05:23:14;26.80;59.00
25732;DHT22;13585;50.864;4.406;2023-07-31T05:25:40;26.80;59.00
25732;DHT22;13585;50.864;4.406;2023-07-31T05:28:05;26.80;59.00
25732;DHT22;13585;50.864;4.406;2023-07-31T05:30:31;26.80;59.00
25732;DHT22;13585;50.864;4.406;2023-07-31T05:32:57;26.80;59.00
25732;DHT22;13585;50.864;4.406;2023-07-31T05:35:22;26.80;59.00
25732;DHT22;13585;50.864;4.406;2023-07-31T05:37:48;26.80;59.00
25732;DHT22;13585;50.864;4.406;2023-07-31T05:40:14;26.80;59.00
25732;DHT22;13585;50.864;4.406;2023-07-31T05:42:40;26.80;59.00
25732;DHT22;13585;50.864;4.406;2023-07-31T05:45:07;26.80;59.00
25732;DHT22;13585;50.864;4.406;2023-07-31T05:47:32;26.80;59.00
25732;DHT22;13585;50.864;4.406;2023-07-31T05:49:59;26.80;59.00
25732;DHT22;13585;50.864;4.406;2023-07-31T05:52:24;26.70;58.90
25732;DHT22;13585;50.864;4.406;2023-07-31T05:54:50;26.80;59.00
25732;DHT22;13585;50.864;4.406;2023-07-31T05:57:16;26.80;58.90
25732;DHT22;13585;50.864;4.406;2023-07-31T05:59:41;26.80;59.00
25732;DHT22;13585;50.864;4.406;2023-07-31T06:02:07;26.70;58.90
25732;DHT22;13585;50.864;4.406;2023-07-31T06:04:33;26.70;58.90
25732;DHT22;13585;50.864;4.406;2023-07-31T06:06:58;26.80;58.90
25732;DHT22;13585;50.864;4.406;2023-07-31T06:09:24;26.80;58.90
25732;DHT22;13585;50.864;4.406;2023-07-31T06:11:51;26.70;58.90
25732;DHT22;13585;50.864;4.406;2023-07-31T06:14:16;26.70;58.90
25732;DHT22;13585;50.864;4.406;2023-07-31T06:16:43;26.70;58.80
25732;DHT22;13585;50.864;4.406;2023-07-31T06:19:09;26.80;58.90
25732;DHT22;13585;50.864;4.406;2023-07-31T06:21:35;26.70;58.80
25732;DHT22;13585;50.864;4.406;2023-07-31T06:24:03;26.70;58.80
25732;DHT22;13585;50.864;4.406;2023-07-31T06:26:29;26.70;58.80
25732;DHT22;13585;50.864;4.406;2023-07-31T06:28:54;26.80;58.80
25732;DHT22;13585;50.864;4.406;2023-07-31T06:31:20;26.70;58.80
25732;DHT22;13585;50.864;4.406;2023-07-31T06:33:49;26.70;58.80
25732;DHT22;13585;50.864;4.406;2023-07-31T06:36:14;26.70;58.80
25732;DHT22;13585;50.864;4.406;2023-07-31T06:38:40;26.70;58.80
25732;DHT22;13585;50.864;4.406;2023-07-31T06:41:05;26.60;58.70
25732;DHT22;13585;50.864;4.406;2023-07-31T06:43:31;26.70;58.70
25732;DHT22;13585;50.864;4.406;2023-07-31T06:45:57;26.70;58.70
25732;DHT22;13585;50.864;4.406;2023-07-31T06:48:22;26.80;58.80
25732;DHT22;13585;50.864;4.406;2023-07-31T06:50:48;26.70;58.70
25732;DHT22;13585;50.864;4.406;2023-07-31T06:53:13;26.70;58.70
25732;DHT22;13585;50.864;4.406;2023-07-31T06:55:39;26.70;58.70
25732;DHT22;13585;50.864;4.406;2023-07-31T06:58:05;26.70;58.80
25732;DHT22;13585;50.864;4.406;2023-07-31T07:00:30;26.70;58.70
25732;DHT22;13585;50.864;4.406;2023-07-31T07:02:56;26.70;58.70
25732;DHT22;13585;50.864;4.406;2023-07-31T07:05:22;26.70;58.70
25732;DHT22;13585;50.864;4.406;2023-07-31T07:07:49;26.70;58.70
25732;DHT22;13585;50.864;4.406;2023-07-31T07:10:16;26.70;58.80
25732;DHT22;13585;50.864;4.406;2023-07-31T07:12:42;26.70;58.70
25732;DHT22;13585;50.864;4.406;2023-07-31T07:15:08;26.70;58.70
25732;DHT22;13585;50.864;4.406;2023-07-31T07:17:33;26.70;58.70
25732;DHT22;13585;50.864;4.406;2023-07-31T07:20:00;26.70;58.70
25732;DHT22;13585;50.864;4.406;2023-07-31T07:22:26;26.70;58.70
25732;DHT22;13585;50.864;4.406;2023-07-31T07:24:52;26.70;58.60
25732;DHT22;13585;50.864;4.406;2023-07-31T07:27:18;26.70;58.70
25732;DHT22;13585;50.864;4.406;2023-07-31T07:29:46;26.70;58.70
25732;DHT22;13585;50.864;4.406;2023-07-31T07:32:12;26.70;58.70
25732;DHT22;13585;50.864;4.406;2023-07-31T07:34:38;26.70;58.60
25732;DHT22;13585;50.864;4.406;2023-07-31T07:37:04;26.70;58.70
25732;DHT22;13585;50.864;4.406;2023-07-31T07:39:30;26.70;58.70
25732;DHT22;13585;50.864;4.406;2023-07-31T07:41:55;26.70;58.70
25732;DHT22;13585;50.864;4.406;2023-07-31T07:44:21;26.70;58.60
25732;DHT22;13585;50.864;4.406;2023-07-31T07:46:47;26.70;58.50
25732;DHT22;13585;50.864;4.406;2023-07-31T07:49:12;26.70;58.50
25732;DHT22;13585;50.864;4.406;2023-07-31T07:51:38;26.70;58.50
25732;DHT22;13585;50.864;4.406;2023-07-31T07:54:04;26.70;58.50
25732;DHT22;13585;50.864;4.406;2023-07-31T07:56:29;26.60;58.50
25732;DHT22;13585;50.864;4.406;2023-07-31T07:58:55;26.60;58.60
25732;DHT22;13585;50.864;4.406;2023-07-31T08:01:21;26.60;58.50
25732;DHT22;13585;50.864;4.406;2023-07-31T08:03:47;26.60;58.50
25732;DHT22;13585;50.864;4.406;2023-07-31T08:06:13;26.60;58.70
25732;DHT22;13585;50.864;4.406;2023-07-31T08:08:39;26.60;58.60
25732;DHT22;13585;50.864;4.406;2023-07-31T08:11:05;26.60;58.60
25732;DHT22;13585;50.864;4.406;2023-07-31T08:13:30;26.60;58.50
25732;DHT22;13585;50.864;4.406;2023-07-31T08:15:56;26.60;58.40
25732;DHT22;13585;50.864;4.406;2023-07-31T08:18:22;26.60;58.30
25732;DHT22;13585;50.864;4.406;2023-07-31T08:20:47;26.60;58.20
25732;DHT22;13585;50.864;4.406;2023-07-31T08:23:13;26.60;58.20
25732;DHT22;13585;50.864;4.406;2023-07-31T08:25:42;26.60;58.20
25732;DHT22;13585;50.864;4.406;2023-07-31T08:28:08;26.60;58.20
25732;DHT22;13585;50.864;4.406;2023-07-31T08:30:33;26.60;58.20
25732;DHT22;13585;50.864;4.406;2023-07-31T08:32:59;26.60;58.20
25732;DHT22;13585;50.864;4.406;2023-07-31T08:35:26;26.60;58.00
25732;DHT22;13585;50.864;4.406;2023-07-31T08:37:53;26.60;58.10
25732;DHT22;13585;50.864;4.406;2023-07-31T08:40:19;26.60;58.00
25732;DHT22;13585;50.864;4.406;2023-07-31T08:42:45;26.60;58.00
25732;DHT22;13585;50.864;4.406;2023-07-31T08:45:18;26.60;58.10
25732;DHT22;13585;50.864;4.406;2023-07-31T08:47:48;26.60;58.30
25732;DHT22;13585;50.864;4.406;2023-07-31T08:50:16;26.60;58.00
25732;DHT22;13585;50.864;4.406;2023-07-31T08:52:43;26.60;58.00
25732;DHT22;13585;50.864;4.406;2023-07-31T08:55:09;26.70;58.00
25732;DHT22;13585;50.864;4.406;2023-07-31T08:57:36;26.70;58.10
25732;DHT22;13585;50.864;4.406;2023-07-31T09:00:04;26.60;58.10
25732;DHT22;13585;50.864;4.406;2023-07-31T09:03:03;26.60;58.00
25732;DHT22;13585;50.864;4.406;2023-07-31T09:05:36;26.60;58.10
25732;DHT22;13585;50.864;4.406;2023-07-31T09:08:05;26.60;58.00
25732;DHT22;13585;50.864;4.406;2023-07-31T09:10:31;26.60;58.00
25732;DHT22;13585;50.864;4.406;2023-07-31T09:12:57;26.70;58.10
25732;DHT22;13585;50.864;4.406;2023-07-31T09:15:24;26.60;58.00
25732;DHT22;13585;50.864;4.406;2023-07-31T09:17:59;26.70;58.00
25732;DHT22;13585;50.864;4.406;2023-07-31T09:20:26;26.60;58.00
25732;DHT22;13585;50.864;4.406;2023-07-31T09:22:52;26.70;57.90
25732;DHT22;13585;50.864;4.406;2023-07-31T09:25:25;26.70;58.00
25732;DHT22;13585;50.864;4.406;2023-07-31T09:27:57;26.60;58.00
25732;DHT22;13585;50.864;4.406;2023-07-31T09:30:23;26.60;58.00
25732;DHT22;13585;50.864;4.406;2023-07-31T16:42:58;26.40;59.70
25732;DHT22;13585;50.864;4.406;2023-07-31T16:45:25;26.50;60.00
25732;DHT22;13585;50.864;4.406;2023-07-31T16:47:50;26.50;59.90
25732;DHT22;13585;50.864;4.406;2023-07-31T16:50:19;26.50;60.40
25732;DHT22;13585;50.864;4.406;2023-07-31T16:52:44;26.40;60.10
25732;DHT22;13585;50.864;4.406;2023-07-31T16:55:10;26.40;60.10
25732;DHT22;13585;50.864;4.406;2023-07-31T16:57:36;26.40;60.00
25732;DHT22;13585;50.864;4.406;2023-07-31T17:00:02;26.40;60.00
25732;DHT22;13585;50.864;4.406;2023-07-31T17:02:27;26.50;60.00
25732;DHT22;13585;50.864;4.406;2023-07-31T17:04:53;26.40;60.00
25732;DHT22;13585;50.864;4.406;2023-07-31T17:07:20;26.50;60.00
25732;DHT22;13585;50.864;4.406;2023-07-31T17:09:46;26.40;60.00
25732;DHT22;13585;50.864;4.406;2023-07-31T17:12:12;26.40;60.20
25732;DHT22;13585;50.864;4.406;2023-07-31T17:14:38;26.40;60.20
25732;DHT22;13585;50.864;4.406;2023-07-31T17:17:04;26.40;60.40
25732;DHT22;13585;50.864;4.406;2023-07-31T17:19:29;26.40;60.30
25732;DHT22;13585;50.864;4.406;2023-07-31T17:21:55;26.40;60.40
25732;DHT22;13585;50.864;4.406;2023-07-31T17:24:20;26.40;60.70
25732;DHT22;13585;50.864;4.406;2023-07-31T17:26:46;26.40;61.10
25732;DHT22;13585;50.864;4.406;2023-07-31T17:29:14;26.50;61.20
25732;DHT22;13585;50.864;4.406;2023-07-31T17:31:41;26.50;61.40
25732;DHT22;13585;50.864;4.406;2023-07-31T17:34:07;26.50;61.40
25732;DHT22;13585;50.864;4.406;2023-07-31T17:36:32;26.40;61.30
25732;DHT22;13585;50.864;4.406;2023-07-31T17:38:59;26.50;61.60
25732;DHT22;13585;50.864;4.406;2023-07-31T17:41:24;26.50;61.40
25732;DHT22;13585;50.864;4.406;2023-07-31T17:43:52;26.40;61.40
25732;DHT22;13585;50.864;4.406;2023-07-31T17:46:18;26.40;61.30
25732;DHT22;13585;50.864;4.406;2023-07-31T17:48:44;26.50;62.10
25732;DHT22;13585;50.864;4.406;2023-07-31T17:51:10;26.40;62.40
25732;DHT22;13585;50.864;4.406;2023-07-31T17:53:36;26.40;62.60
25732;DHT22;13585;50.864;4.406;2023-07-31T17:56:01;26.30;62.60
25732;DHT22;13585;50.864;4.406;2023-07-31T17:58:27;26.30;63.00
25732;DHT22;13585;50.864;4.406;2023-07-31T18:00:52;26.20;63.00
25732;DHT22;13585;50.864;4.406;2023-07-31T18:03:18;26.30;63.20
25732;DHT22;13585;50.864;4.406;2023-07-31T18:05:44;26.30;63.10
25732;DHT22;13585;50.864;4.406;2023-07-31T18:08:09;26.30;63.00
25732;DHT22;13585;50.864;4.406;2023-07-31T18:10:43;26.30;63.00
25732;DHT22;13585;50.864;4.406;2023-07-31T18:13:08;26.30;62.90
25732;DHT22;13585;50.864;4.406;2023-07-31T18:15:34;26.30;62.60
25732;DHT22;13585;50.864;4.406;2023-07-31T18:18:00;26.30;62.60
25732;DHT22;13585;50.864;4.406;2023-07-31T18:20:25;26.30;62.50
25732;DHT22;13585;50.864;4.406;2023-07-31T18:22:51;26.30;62.50
25732;DHT22;13585;50.864;4.406;2023-07-31T18:25:16;26.40;62.60
25732;DHT22;13585;50.864;4.406;2023-07-31T18:27:45;26.40;62.40
25732;DHT22;13585;50.864;4.406;2023-07-31T18:30:12;26.30;62.10
25732;DHT22;13585;50.864;4.406;2023-07-31T18:32:37;26.40;62.20
25732;DHT22;13585;50.864;4.406;2023-07-31T18:35:03;26.40;62.10
25732;DHT22;13585;50.864;4.406;2023-07-31T18:37:29;26.40;62.40
25732;DHT22;13585;50.864;4.406;2023-07-31T18:39:55;26.40;62.00
25732;DHT22;13585;50.864;4.406;2023-07-31T18:42:21;26.40;61.90
25732;DHT22;13585;50.864;4.406;2023-07-31T18:44:47;26.40;61.80
25732;DHT22;13585;50.864;4.406;2023-07-31T18:47:12;26.40;61.80
25732;DHT22;13585;50.864;4.406;2023-07-31T18:49:38;26.40;61.60
25732;DHT22;13585;50.864;4.406;2023-07-31T18:52:04;26.50;62.00
25732;DHT22;13585;50.864;4.406;2023-07-31T18:54:30;26.50;62.00
25732;DHT22;13585;50.864;4.406;2023-07-31T18:56:56;26.50;62.00
25732;DHT22;13585;50.864;4.406;2023-07-31T18:59:21;26.50;61.80
25732;DHT22;13585;50.864;4.406;2023-07-31T19:01:47;26.50;61.80
25732;DHT22;13585;50.864;4.406;2023-07-31T19:04:13;26.50;61.60
25732;DHT22;13585;50.864;4.406;2023-07-31T19:06:39;26.50;61.60
25732;DHT22;13585;50.864;4.406;2023-07-31T19:09:06;26.50;61.50
25732;DHT22;13585;50.864;4.406;2023-07-31T19:11:32;26.50;61.50
25732;DHT22;13585;50.864;4.406;2023-07-31T19:13:57;26.50;61.40
25732;DHT22;13585;50.864;4.406;2023-07-31T19:16:24;26.50;61.60
25732;DHT22;13585;50.864;4.406;2023-07-31T19:18:50;26.40;61.50
25732;DHT22;13585;50.864;4.406;2023-07-31T19:21:15;26.50;61.60
25732;DHT22;13585;50.864;4.406;2023-07-31T19:23:41;26.50;61.50
25732;DHT22;13585;50.864;4.406;2023-07-31T19:26:07;26.50;61.40
25732;DHT22;13585;50.864;4.406;2023-07-31T19:28:33;26.50;61.40
25732;DHT22;13585;50.864;4.406;2023-07-31T19:30:59;26.50;61.30
25732;DHT22;13585;50.864;4.406;2023-07-31T19:33:25;26.50;62.00
25732;DHT22;13585;50.864;4.406;2023-07-31T19:35:56;26.50;61.20
25732;DHT22;13585;50.864;4.406;2023-07-31T19:38:22;26.40;61.20
25732;DHT22;13585;50.864;4.406;2023-07-31T19:40:48;26.50;61.10
25732;DHT22;13585;50.864;4.406;2023-07-31T19:43:14;26.50;61.90
25732;DHT22;13585;50.864;4.406;2023-07-31T19:45:39;26.40;61.00
25732;DHT22;13585;50.864;4.406;2023-07-31T19:48:05;26.50;61.00
25732;DHT22;13585;50.864;4.406;2023-07-31T19:50:30;26.50;61.10
25732;DHT22;13585;50.864;4.406;2023-07-31T19:52:56;26.50;61.00
25732;DHT22;13585;50.864;4.406;2023-07-31T19:55:22;26.50;60.90
25732;DHT22;13585;50.864;4.406;2023-07-31T19:57:48;26.50;60.80
25732;DHT22;13585;50.864;4.406;2023-07-31T20:00:14;26.50;60.80
25732;DHT22;13585;50.864;4.406;2023-07-31T20:02:39;26.40;60.70
25732;DHT22;13585;50.864;4.406;2023-07-31T20:07:30;26.40;60.70
25732;DHT22;13585;50.864;4.406;2023-07-31T20:09:56;26.40;60.70
25732;DHT22;13585;50.864;4.406;2023-07-31T20:12:24;26.40;60.70
25732;DHT22;13585;50.864;4.406;2023-07-31T20:14:52;26.40;60.60
25732;DHT22;13585;50.864;4.406;2023-07-31T20:17:23;26.40;60.60
25732;DHT22;13585;50.864;4.406;2023-07-31T20:23:01;26.50;60.80
25732;DHT22;13585;50.864;4.406;2023-07-31T20:25:39;26.50;60.80
25732;DHT22;13585;50.864;4.406;2023-07-31T20:30:46;26.50;60.90
25732;DHT22;13585;50.864;4.406;2023-07-31T20:33:12;26.50;60.90
25732;DHT22;13585;50.864;4.406;2023-07-31T20:35:43;26.50;60.80
25732;DHT22;13585;50.864;4.406;2023-07-31T20:38:13;26.40;60.90
25732;DHT22;13585;50.864;4.406;2023-07-31T20:40:38;26.50;60.80
25732;DHT22;13585;50.864;4.406;2023-07-31T20:43:04;26.50;61.10
25732;DHT22;13585;50.864;4.406;2023-07-31T20:45:30;26.50;61.00
25732;DHT22;13585;50.864;4.406;2023-07-31T20:47:57;26.50;61.00
25732;DHT22;13585;50.864;4.406;2023-07-31T20:50:25;26.50;60.80
25732;DHT22;13585;50.864;4.406;2023-07-31T20:52:51;26.50;61.00
25732;DHT22;13585;50.864;4.406;2023-07-31T20:55:18;26.50;61.00
25732;DHT22;13585;50.864;4.406;2023-07-31T20:57:44;26.50;60.90
25732;DHT22;13585;50.864;4.406;2023-07-31T21:00:10;26.50;61.20
25732;DHT22;13585;50.864;4.406;2023-07-31T21:02:40;26.50;61.10
25732;DHT22;13585;50.864;4.406;2023-07-31T21:05:05;26.50;61.30
25732;DHT22;13585;50.864;4.406;2023-07-31T21:07:31;26.50;61.30
25732;DHT22;13585;50.864;4.406;2023-07-31T21:09:57;26.50;61.10
25732;DHT22;13585;50.864;4.406;2023-07-31T21:12:22;26.50;61.00
25732;DHT22;13585;50.864;4.406;2023-07-31T21:15:16;26.50;60.90
25732;DHT22;13585;50.864;4.406;2023-07-31T21:17:44;26.40;60.90
25732;DHT22;13585;50.864;4.406;2023-07-31T21:20:10;26.40;60.50
25732;DHT22;13585;50.864;4.406;2023-07-31T21:22:35;26.40;60.70
25732;DHT22;13585;50.864;4.406;2023-07-31T21:25:02;26.40;60.60
25732;DHT22;13585;50.864;4.406;2023-07-31T21:27:27;26.40;60.50
25732;DHT22;13585;50.864;4.406;2023-07-31T21:29:53;26.30;60.30
25732;DHT22;13585;50.864;4.406;2023-07-31T21:32:19;26.40;60.30
25732;DHT22;13585;50.864;4.406;2023-07-31T21:34:45;26.40;60.30
25732;DHT22;13585;50.864;4.406;2023-07-31T21:37:11;26.40;60.20
25732;DHT22;13585;50.864;4.406;2023-07-31T21:39:39;26.40;60.10
25732;DHT22;13585;50.864;4.406;2023-07-31T21:42:06;26.40;60.10
25732;DHT22;13585;50.864;4.406;2023-07-31T21:44:32;26.40;60.00
25732;DHT22;13585;50.864;4.406;2023-07-31T21:46:58;26.40;60.00
25732;DHT22;13585;50.864;4.406;2023-07-31T21:49:23;26.40;60.00
25732;DHT22;13585;50.864;4.406;2023-07-31T21:51:49;26.40;59.90
25732;DHT22;13585;50.864;4.406;2023-07-31T21:54:14;26.40;59.90
25732;DHT22;13585;50.864;4.406;2023-07-31T21:56:40;26.40;59.90
25732;DHT22;13585;50.864;4.406;2023-07-31T21:59:06;26.40;59.80
25732;DHT22;13585;50.864;4.406;2023-07-31T22:01:31;26.40;59.80
25732;DHT22;13585;50.864;4.406;2023-07-31T22:03:57;26.40;59.80
25732;DHT22;13585;50.864;4.406;2023-07-31T22:06:23;26.40;59.80
25732;DHT22;13585;50.864;4.406;2023-07-31T22:08:48;26.40;59.90
25732;DHT22;13585;50.864;4.406;2023-07-31T22:11:14;26.40;60.70
25732;DHT22;13585;50.864;4.406;2023-07-31T22:13:40;26.40;59.90
25732;DHT22;13585;50.864;4.406;2023-07-31T22:16:05;26.40;59.90
25732;DHT22;13585;50.864;4.406;2023-07-31T22:18:31;26.40;59.80
25732;DHT22;13585;50.864;4.406;2023-07-31T22:20:57;26.40;60.50
25732;DHT22;13585;50.864;4.406;2023-07-31T22:23:22;26.40;59.80
25732;DHT22;13585;50.864;4.406;2023-07-31T22:25:48;26.40;59.80
25732;DHT22;13585;50.864;4.406;2023-07-31T22:28:13;26.40;59.80
25732;DHT22;13585;50.864;4.406;2023-07-31T22:30:39;26.40;59.80
25732;DHT22;13585;50.864;4.406;2023-07-31T22:33:04;26.40;59.90
25732;DHT22;13585;50.864;4.406;2023-07-31T22:35:30;26.50;60.00
25732;DHT22;13585;50.864;4.406;2023-07-31T22:37:56;26.40;60.00
25732;DHT22;13585;50.864;4.406;2023-07-31T22:40:25;26.40;60.00
25732;DHT22;13585;50.864;4.406;2023-07-31T22:42:55;26.40;60.20
25732;DHT22;13585;50.864;4.406;2023-07-31T22:45:22;26.40;60.10
25732;DHT22;13585;50.864;4.406;2023-07-31T22:47:47;26.50;60.20
25732;DHT22;13585;50.864;4.406;2023-07-31T22:50:13;26.40;60.20